Time;durP1;ratioP1;P1;durP2;ratioP2;P2;SDS_P1;SDS_P2;PMS_P1;PMS_P2;Temp;Humidity;BMP_temperature;BMP_pressure;BME280_temperature;BME280_humidity;BME280_pressure;Samples;Min_cycle;Max_cycle;Signal;HPM_P1;HPM_P2
2020/12/24 00:02:14;;;;;;;61.50;32.95;;;;;;;;;;5074985;28;20051;-62
2020/12/24 00:04:40;;;;;;;65.00;34.20;;;;;;;;;;5075632;28;20382;-62
2020/12/24 00:07:06;;;;;;;62.70;33.78;;;;;;;;;;5075657;28;20032;-62
2020/12/24 00:09:32;;;;;;;62.55;34.53;;;;;;;;;;5075001;28;20119;-62
2020/12/24 00:11:58;;;;;;;65.28;35.42;;;;;;;;;;5074725;28;20028;-62
2020/12/24 00:14:25;;;;;;;70.53;35.35;;;;;;;;;;5075558;28;20086;-62
2020/12/24 00:16:51;;;;;;;60.90;33.83;;;;;;;;;;5075416;28;20043;-62
2020/12/24 00:19:17;;;;;;;63.80;34.67;;;;;;;;;;5073700;28;20024;-62
2020/12/24 00:21:43;;;;;;;61.65;33.50;;;;;;;;;;5075158;28;20024;-62
2020/12/24 00:24:10;;;;;;;68.22;36.22;;;;;;;;;;5073289;28;20500;-62
2020/12/24 00:26:36;;;;;;;67.38;36.38;;;;;;;;;;5075035;28;20047;-62
2020/12/24 00:29:07;;;;;;;82.72;41.42;;;;;;;;;;5075195;28;20028;-62
2020/12/24 00:31:36;;;;;;;76.78;39.85;;;;;;;;;;5075028;28;20024;-62
2020/12/24 00:34:03;;;;;;;75.05;38.28;;;;;;;;;;5073293;28;20021;-62
2020/12/24 00:36:30;;;;;;;68.82;37.28;;;;;;;;;;5074322;28;20404;-62
2020/12/24 00:38:56;;;;;;;78.97;38.78;;;;;;;;;;5074771;28;20021;-62
2020/12/24 00:41:22;;;;;;;66.63;36.15;;;;;;;;;;5073731;28;20032;-62
2020/12/24 00:43:49;;;;;;;69.78;38.03;;;;;;;;;;5074274;28;20116;-62
2020/12/24 00:46:15;;;;;;;70.82;37.60;;;;;;;;;;5073813;28;20025;-62
2020/12/24 00:48:41;;;;;;;68.90;36.08;;;;;;;;;;5072914;28;20037;-61
2020/12/24 00:51:07;;;;;;;67.80;35.55;;;;;;;;;;5074225;28;20024;-62
2020/12/24 00:53:34;;;;;;;69.78;37.97;;;;;;;;;;5074654;28;20039;-62
2020/12/24 00:56:00;;;;;;;72.57;37.97;;;;;;;;;;5073020;28;20103;-62
2020/12/24 00:58:26;;;;;;;71.80;39.67;;;;;;;;;;5073589;28;20024;-62
2020/12/24 01:00:53;;;;;;;72.63;37.67;;;;;;;;;;5074428;28;20351;-62
2020/12/24 01:03:19;;;;;;;65.28;36.55;;;;;;;;;;5073843;28;20389;-62
2020/12/24 01:05:45;;;;;;;73.35;38.53;;;;;;;;;;5074153;28;20039;-62
2020/12/24 01:08:11;;;;;;;64.72;36.15;;;;;;;;;;5074217;28;20063;-62
2020/12/24 01:10:37;;;;;;;67.22;35.78;;;;;;;;;;5073063;28;20025;-62
2020/12/24 01:13:03;;;;;;;68.95;37.53;;;;;;;;;;5072303;28;20035;-63
2020/12/24 01:15:29;;;;;;;59.53;35.20;;;;;;;;;;5072275;28;20025;-62
2020/12/24 01:17:56;;;;;;;65.68;34.72;;;;;;;;;;5072452;28;20047;-62
2020/12/24 01:20:22;;;;;;;64.63;34.75;;;;;;;;;;5072306;28;20021;-62
2020/12/24 01:22:48;;;;;;;60.92;33.72;;;;;;;;;;5072290;28;20039;-62
2020/12/24 01:25:14;;;;;;;64.13;34.50;;;;;;;;;;5072564;28;20092;-62
2020/12/24 01:27:41;;;;;;;60.83;32.45;;;;;;;;;;5073987;28;20068;-62
2020/12/24 01:30:07;;;;;;;63.33;34.38;;;;;;;;;;5073812;28;20024;-62
2020/12/24 01:32:33;;;;;;;67.93;35.15;;;;;;;;;;5073829;28;20408;-62
2020/12/24 01:35:00;;;;;;;67.25;34.75;;;;;;;;;;5074000;28;20568;-62
2020/12/24 01:37:28;;;;;;;71.65;35.15;;;;;;;;;;5073675;28;20045;-62
2020/12/24 01:39:54;;;;;;;73.38;36.00;;;;;;;;;;5074068;28;20025;-62
2020/12/24 01:42:20;;;;;;;67.72;36.28;;;;;;;;;;5073675;28;20078;-62
2020/12/24 01:44:47;;;;;;;61.15;33.40;;;;;;;;;;5073946;28;20063;-62
2020/12/24 01:47:14;;;;;;;63.90;31.92;;;;;;;;;;5073553;28;20032;-62
2020/12/24 01:49:40;;;;;;;60.97;32.88;;;;;;;;;;5073574;28;20037;-62
2020/12/24 01:52:08;;;;;;;65.00;33.45;;;;;;;;;;5073472;28;20036;-62
2020/12/24 01:54:34;;;;;;;75.30;35.40;;;;;;;;;;5073373;28;20450;-62
2020/12/24 01:57:00;;;;;;;75.00;35.53;;;;;;;;;;5073510;28;20025;-62
2020/12/24 01:59:26;;;;;;;77.75;35.63;;;;;;;;;;5073585;28;20023;-62
2020/12/24 02:01:52;;;;;;;74.72;35.40;;;;;;;;;;5073271;28;20059;-62
2020/12/24 02:04:19;;;;;;;74.05;37.75;;;;;;;;;;5073349;28;20361;-62
2020/12/24 02:06:48;;;;;;;71.78;35.63;;;;;;;;;;5073238;28;20059;-62
2020/12/24 02:09:14;;;;;;;69.57;34.22;;;;;;;;;;5073302;28;20071;-62
2020/12/24 02:11:41;;;;;;;68.05;34.63;;;;;;;;;;5073562;28;20235;-62
2020/12/24 02:14:07;;;;;;;68.13;33.38;;;;;;;;;;5073329;28;20032;-62
2020/12/24 02:16:37;;;;;;;71.90;36.20;;;;;;;;;;5073158;28;20024;-62
2020/12/24 02:19:04;;;;;;;72.78;34.53;;;;;;;;;;5073186;28;20025;-62
2020/12/24 02:21:31;;;;;;;66.55;34.55;;;;;;;;;;5073083;28;20032;-62
2020/12/24 02:23:57;;;;;;;67.53;34.88;;;;;;;;;;5073660;28;20025;-62
2020/12/24 02:26:23;;;;;;;65.40;36.10;;;;;;;;;;5073002;28;20469;-62
2020/12/24 02:28:49;;;;;;;70.35;36.00;;;;;;;;;;5073309;28;20397;-62
2020/12/24 02:31:15;;;;;;;73.75;36.60;;;;;;;;;;5073028;28;20023;-62
2020/12/24 02:33:42;;;;;;;70.35;36.30;;;;;;;;;;5055089;28;20036;-62
2020/12/24 02:36:08;;;;;;;67.22;35.20;;;;;;;;;;5073305;28;20373;-62
2020/12/24 02:38:34;;;;;;;71.18;35.25;;;;;;;;;;5055016;28;20074;-62
2020/12/24 02:41:00;;;;;;;67.55;34.85;;;;;;;;;;5073431;28;20032;-62
2020/12/24 02:43:26;;;;;;;66.70;35.00;;;;;;;;;;5077192;28;20020;-62
2020/12/24 02:45:52;;;;;;;64.75;34.60;;;;;;;;;;5077213;28;20028;-62
2020/12/24 02:48:18;;;;;;;62.90;34.50;;;;;;;;;;5077420;28;20086;-62
2020/12/24 02:50:45;;;;;;;67.20;35.22;;;;;;;;;;5077254;28;20111;-62
2020/12/24 02:53:11;;;;;;;68.95;35.15;;;;;;;;;;5076968;28;20017;-62
2020/12/24 02:55:37;;;;;;;65.88;34.78;;;;;;;;;;5076744;28;20068;-62
2020/12/24 02:58:04;;;;;;;70.90;34.78;;;;;;;;;;5076812;28;20024;-62
2020/12/24 03:00:31;;;;;;;66.10;35.47;;;;;;;;;;5076820;28;20036;-62
2020/12/24 03:02:57;;;;;;;70.50;35.60;;;;;;;;;;5076993;28;20069;-62
2020/12/24 03:05:23;;;;;;;74.75;36.75;;;;;;;;;;5076702;28;20025;-63
2020/12/24 03:07:52;;;;;;;65.00;34.70;;;;;;;;;;5076854;28;20047;-62
2020/12/24 03:10:19;;;;;;;75.00;34.47;;;;;;;;;;5076720;28;20029;-62
2020/12/24 03:12:45;;;;;;;67.55;34.70;;;;;;;;;;5076798;28;20090;-62
2020/12/24 03:15:11;;;;;;;74.82;35.10;;;;;;;;;;5076642;28;20024;-62
2020/12/24 03:17:38;;;;;;;66.25;34.58;;;;;;;;;;5076504;28;20099;-62
2020/12/24 03:20:07;;;;;;;76.50;34.97;;;;;;;;;;5076435;28;20039;-62
2020/12/24 03:22:33;;;;;;;63.35;33.13;;;;;;;;;;5076538;28;20020;-62
2020/12/24 03:25:00;;;;;;;68.72;35.38;;;;;;;;;;5076589;28;20024;-62
2020/12/24 03:27:26;;;;;;;66.93;34.78;;;;;;;;;;5058301;28;20060;-62
2020/12/24 03:29:52;;;;;;;67.80;33.75;;;;;;;;;;5076346;28;20028;-62
2020/12/24 03:32:18;;;;;;;71.28;35.15;;;;;;;;;;5076351;28;20461;-62
2020/12/24 03:34:45;;;;;;;66.45;34.08;;;;;;;;;;5076208;28;20040;-62
2020/12/24 03:37:11;;;;;;;68.70;33.88;;;;;;;;;;5058121;28;20020;-62
2020/12/24 03:39:37;;;;;;;67.55;33.20;;;;;;;;;;5076369;28;20025;-62
2020/12/24 03:42:03;;;;;;;64.40;33.38;;;;;;;;;;5076255;28;20025;-63
2020/12/24 03:44:29;;;;;;;64.95;31.30;;;;;;;;;;5076030;28;20020;-62
2020/12/24 03:46:55;;;;;;;66.55;33.65;;;;;;;;;;5076056;28;20025;-63
2020/12/24 03:49:21;;;;;;;72.15;33.38;;;;;;;;;;5075885;28;20114;-62
2020/12/24 03:51:47;;;;;;;70.25;33.25;;;;;;;;;;5075894;28;20028;-61
2020/12/24 03:54:14;;;;;;;61.97;32.47;;;;;;;;;;5074294;28;20034;-62
2020/12/24 03:56:40;;;;;;;59.78;31.55;;;;;;;;;;5057794;28;20056;-62
2020/12/24 03:59:06;;;;;;;59.88;31.95;;;;;;;;;;5075732;28;20039;-61
2020/12/24 04:01:32;;;;;;;58.42;29.55;;;;;;;;;;5075985;28;20024;-62
2020/12/24 04:03:58;;;;;;;67.15;32.70;;;;;;;;;;5075688;28;20107;-62
2020/12/24 04:06:24;;;;;;;67.28;33.00;;;;;;;;;;5075706;28;20025;-62
2020/12/24 04:08:51;;;;;;;66.50;32.50;;;;;;;;;;5075650;28;20040;-62
2020/12/24 04:11:19;;;;;;;66.55;32.25;;;;;;;;;;5057736;28;20024;-62
2020/12/24 04:13:45;;;;;;;64.00;32.80;;;;;;;;;;5075474;28;20024;-62
2020/12/24 04:16:11;;;;;;;58.63;30.83;;;;;;;;;;5075516;28;20036;-62
2020/12/24 04:18:38;;;;;;;57.03;32.35;;;;;;;;;;5075358;28;20158;-63
2020/12/24 04:21:04;;;;;;;59.38;30.92;;;;;;;;;;5075406;28;20021;-63
2020/12/24 04:23:30;;;;;;;59.40;30.45;;;;;;;;;;5075198;28;20043;-62
2020/12/24 04:25:56;;;;;;;60.67;31.70;;;;;;;;;;5075618;28;20028;-62
2020/12/24 04:28:22;;;;;;;58.97;30.77;;;;;;;;;;5075252;28;20066;-62
2020/12/24 04:30:49;;;;;;;51.72;28.70;;;;;;;;;;5075419;28;20181;-62
2020/12/24 04:33:15;;;;;;;50.53;27.10;;;;;;;;;;5074947;28;20523;-62
2020/12/24 04:35:41;;;;;;;48.97;27.80;;;;;;;;;;5075381;28;20028;-62
2020/12/24 04:38:07;;;;;;;48.47;26.90;;;;;;;;;;5075069;28;20036;-62
2020/12/24 04:40:34;;;;;;;48.40;27.65;;;;;;;;;;5075105;28;20533;-62
2020/12/24 04:43:02;;;;;;;48.05;27.35;;;;;;;;;;5057142;28;20115;-62
2020/12/24 04:45:29;;;;;;;47.67;26.75;;;;;;;;;;5056942;28;20028;-62
2020/12/24 04:47:57;;;;;;;51.28;26.38;;;;;;;;;;5074739;28;20078;-62
2020/12/24 04:50:27;;;;;;;47.42;25.92;;;;;;;;;;5056957;28;20554;-62
2020/12/24 04:52:54;;;;;;;55.65;28.77;;;;;;;;;;5074885;28;20024;-62
2020/12/24 04:55:21;;;;;;;61.28;29.85;;;;;;;;;;5056840;28;20048;-62
2020/12/24 04:57:50;;;;;;;56.05;29.08;;;;;;;;;;5074734;28;20089;-62
2020/12/24 05:00:17;;;;;;;56.30;28.70;;;;;;;;;;5074639;28;20073;-62
2020/12/24 05:02:43;;;;;;;60.92;29.77;;;;;;;;;;5073159;28;20033;-62
2020/12/24 05:05:09;;;;;;;48.83;26.33;;;;;;;;;;5073447;28;20698;-62
2020/12/24 05:07:36;;;;;;;49.33;26.15;;;;;;;;;;5072728;28;20235;-62
2020/12/24 05:10:03;;;;;;;47.72;25.55;;;;;;;;;;5072683;28;20500;-62
2020/12/24 05:12:30;;;;;;;51.13;25.90;;;;;;;;;;5055418;28;20021;-62
2020/12/24 05:14:56;;;;;;;48.15;25.58;;;;;;;;;;5073424;28;20036;-62
2020/12/24 05:17:23;;;;;;;46.38;24.27;;;;;;;;;;5072349;28;20027;-61
2020/12/24 05:20:05;;;;;;;44.80;25.50;;;;;;;;;;5073737;28;20103;-62
2020/12/24 05:22:32;;;;;;;46.75;26.45;;;;;;;;;;5072220;28;20035;-62
2020/12/24 05:25:11;;;;;;;42.95;24.55;;;;;;;;;;5073257;28;20033;-61
2020/12/24 05:27:37;;;;;;;47.38;24.00;;;;;;;;;;5074377;28;20033;-62
2020/12/24 05:30:04;;;;;;;44.67;24.35;;;;;;;;;;5073762;28;20044;-62
2020/12/24 05:32:30;;;;;;;40.95;23.38;;;;;;;;;;5074110;28;20422;-61
2020/12/24 05:35:10;;;;;;;42.33;23.92;;;;;;;;;;5073684;28;20096;-62
2020/12/24 05:37:37;;;;;;;50.85;27.00;;;;;;;;;;5073701;28;20032;-62
2020/12/24 05:40:18;;;;;;;55.85;27.45;;;;;;;;;;5073679;28;20428;-62
2020/12/24 05:42:48;;;;;;;50.92;26.92;;;;;;;;;;5055820;28;20569;-62
2020/12/24 05:45:18;;;;;;;48.75;27.00;;;;;;;;;;5055324;28;20381;-63
2020/12/24 05:47:44;;;;;;;45.72;25.50;;;;;;;;;;5072296;28;20086;-62
2020/12/24 05:50:23;;;;;;;46.95;25.27;;;;;;;;;;5073862;28;20210;-63
2020/12/24 05:53:05;;;;;;;49.63;26.50;;;;;;;;;;5072748;28;20025;-63
2020/12/24 05:55:31;;;;;;;50.90;26.80;;;;;;;;;;5073162;28;20075;-63
2020/12/24 05:57:58;;;;;;;55.50;27.23;;;;;;;;;;5073666;28;20020;-63
2020/12/24 06:00:35;;;;;;;52.97;27.95;;;;;;;;;;5073216;28;20028;-63
2020/12/24 06:03:21;;;;;;;56.28;27.25;;;;;;;;;;5072969;28;20028;-63
2020/12/24 06:05:53;;;;;;;52.35;27.17;;;;;;;;;;5071777;28;20550;-63
2020/12/24 06:08:22;;;;;;;51.75;26.33;;;;;;;;;;5071481;28;20555;-63
2020/12/24 06:10:59;;;;;;;48.70;26.70;;;;;;;;;;5072944;28;20028;-62
2020/12/24 06:13:33;;;;;;;45.97;27.10;;;;;;;;;;5073305;28;20024;-63
2020/12/24 06:16:03;;;;;;;51.42;27.17;;;;;;;;;;5072235;28;20027;-63
2020/12/24 06:18:31;;;;;;;52.95;27.73;;;;;;;;;;5071730;28;20029;-63
2020/12/24 06:21:00;;;;;;;60.63;27.73;;;;;;;;;;5072644;28;20024;-62
2020/12/24 06:23:27;;;;;;;63.08;29.65;;;;;;;;;;5073010;28;20024;-62
2020/12/24 06:25:54;;;;;;;58.90;29.13;;;;;;;;;;5073037;28;20048;-62
2020/12/24 06:28:20;;;;;;;54.90;28.23;;;;;;;;;;5072466;28;20499;-62
2020/12/24 06:30:46;;;;;;;58.38;28.77;;;;;;;;;;5072883;28;20025;-62
2020/12/24 06:33:12;;;;;;;55.13;27.42;;;;;;;;;;5073152;28;20069;-62
2020/12/24 06:35:39;;;;;;;61.40;31.42;;;;;;;;;;5072978;28;20024;-62
2020/12/24 06:38:06;;;;;;;57.22;28.30;;;;;;;;;;5073336;28;20032;-62
2020/12/24 06:40:34;;;;;;;56.13;28.60;;;;;;;;;;5071595;28;20029;-62
2020/12/24 06:43:00;;;;;;;56.33;29.25;;;;;;;;;;5072347;28;20037;-62
2020/12/24 06:45:29;;;;;;;59.60;28.90;;;;;;;;;;5072782;28;20027;-62
2020/12/24 06:48:19;;;;;;;56.05;29.02;;;;;;;;;;5073215;28;20036;-62
2020/12/24 06:50:46;;;;;;;59.35;26.42;;;;;;;;;;5072829;28;20376;-62
2020/12/24 06:53:18;;;;;;;55.75;26.70;;;;;;;;;;5072824;28;20108;-62
2020/12/24 06:55:44;;;;;;;56.65;27.35;;;;;;;;;;5072498;28;20048;-62
2020/12/24 06:58:30;;;;;;;53.75;26.27;;;;;;;;;;5072898;28;20111;-62
2020/12/24 07:01:02;;;;;;;45.72;23.75;;;;;;;;;;5072651;28;20060;-62
2020/12/24 07:03:28;;;;;;;52.65;23.75;;;;;;;;;;5072795;28;20039;-62
2020/12/24 07:05:54;;;;;;;49.53;23.83;;;;;;;;;;5072614;28;20012;-62
2020/12/24 07:08:33;;;;;;;42.22;22.13;;;;;;;;;;5072528;28;20036;-62
2020/12/24 07:10:59;;;;;;;44.13;21.30;;;;;;;;;;5072765;28;20024;-62
2020/12/24 07:13:36;;;;;;;45.50;23.30;;;;;;;;;;5072853;28;20029;-62
2020/12/24 07:16:05;;;;;;;37.75;21.50;;;;;;;;;;5072605;28;20362;-62
2020/12/24 07:18:32;;;;;;;39.45;20.00;;;;;;;;;;5072901;28;20380;-63
2020/12/24 07:21:02;;;;;;;40.28;22.35;;;;;;;;;;5072736;28;20025;-62
2020/12/24 07:23:29;;;;;;;43.50;22.73;;;;;;;;;;5072651;28;20052;-63
2020/12/24 07:25:56;;;;;;;41.65;22.52;;;;;;;;;;5072673;28;20027;-62
2020/12/24 07:28:22;;;;;;;39.55;20.83;;;;;;;;;;5074603;28;20492;-62
2020/12/24 07:31:01;;;;;;;34.70;18.60;;;;;;;;;;5074610;28;20459;-62
2020/12/24 07:33:28;;;;;;;39.78;20.15;;;;;;;;;;5075658;28;20024;-62
2020/12/24 07:35:54;;;;;;;34.22;18.55;;;;;;;;;;5075791;28;20039;-62
2020/12/24 07:38:25;;;;;;;38.58;22.55;;;;;;;;;;5057436;28;20032;-62
2020/12/24 07:40:51;;;;;;;41.65;22.92;;;;;;;;;;5075399;28;20029;-62
2020/12/24 07:43:17;;;;;;;51.08;28.60;;;;;;;;;;5076248;28;20021;-62
2020/12/24 07:45:44;;;;;;;59.38;31.90;;;;;;;;;;5076107;28;20048;-61
2020/12/24 07:48:12;;;;;;;62.35;31.33;;;;;;;;;;5076368;28;20397;-62
2020/12/24 07:50:38;;;;;;;60.60;32.45;;;;;;;;;;5075720;28;20104;-63
2020/12/24 07:53:05;;;;;;;64.18;32.67;;;;;;;;;;5075285;28;20082;-62
2020/12/24 07:55:31;;;;;;;61.85;33.63;;;;;;;;;;5057009;28;20045;-62
2020/12/24 07:58:10;;;;;;;62.88;33.97;;;;;;;;;;5074976;28;20028;-62
2020/12/24 08:00:43;;;;;;;61.35;34.83;;;;;;;;;;5075822;28;20029;-62
2020/12/24 08:03:09;;;;;;;56.03;33.00;;;;;;;;;;5075945;28;20024;-62
2020/12/24 08:05:36;;;;;;;55.35;31.65;;;;;;;;;;5075364;28;20374;-61
2020/12/24 08:08:03;;;;;;;47.00;27.85;;;;;;;;;;5075668;28;20102;-61
2020/12/24 08:10:29;;;;;;;50.70;29.80;;;;;;;;;;5075288;28;20031;-61
2020/12/24 08:13:05;;;;;;;48.63;29.17;;;;;;;;;;5075186;28;20050;-61
2020/12/24 08:15:32;;;;;;;45.92;27.30;;;;;;;;;;5057591;28;20054;-61
2020/12/24 08:18:00;;;;;;;46.55;28.85;;;;;;;;;;5057536;28;20021;-63
2020/12/24 08:20:50;;;;;;;48.13;29.67;;;;;;;;;;5075467;28;20024;-62
2020/12/24 08:23:18;;;;;;;64.22;37.13;;;;;;;;;;5029365;28;20032;-62
2020/12/24 08:25:46;;;;;;;63.45;37.92;;;;;;;;;;5075895;28;20029;-61
2020/12/24 08:28:12;;;;;;;59.33;35.67;;;;;;;;;;5075229;28;20477;-62
2020/12/24 08:30:39;;;;;;;48.58;29.60;;;;;;;;;;5075451;28;20032;-62
2020/12/24 08:33:05;;;;;;;54.00;32.17;;;;;;;;;;5075381;28;20025;-61
2020/12/24 08:35:31;;;;;;;57.60;34.67;;;;;;;;;;5074943;28;20055;-61
2020/12/24 08:38:17;;;;;;;50.47;32.40;;;;;;;;;;5075172;28;20028;-62
2020/12/24 08:40:44;;;;;;;44.85;29.65;;;;;;;;;;5074816;28;20052;-62
2020/12/24 08:43:11;;;;;;;46.17;30.13;;;;;;;;;;5074938;28;20025;-61
2020/12/24 08:45:44;;;;;;;49.65;29.98;;;;;;;;;;5074500;28;20031;-61
2020/12/24 08:48:11;;;;;;;45.35;27.65;;;;;;;;;;5074817;28;20036;-62
2020/12/24 08:50:40;;;;;;;41.28;25.60;;;;;;;;;;5074251;28;20020;-62
2020/12/24 08:53:06;;;;;;;40.70;26.20;;;;;;;;;;5074067;28;20025;-62
2020/12/24 08:55:33;;;;;;;49.90;29.20;;;;;;;;;;5074699;28;20134;-62
2020/12/24 08:58:00;;;;;;;54.13;30.55;;;;;;;;;;5056978;28;20021;-61
2020/12/24 09:00:27;;;;;;;51.03;30.52;;;;;;;;;;5074053;28;20439;-61
2020/12/24 09:02:53;;;;;;;55.78;33.92;;;;;;;;;;5065695;28;20109;-62
2020/12/24 09:05:26;;;;;;;50.25;32.00;;;;;;;;;;5070732;28;20038;-61
2020/12/24 09:07:53;;;;;;;42.88;25.05;;;;;;;;;;5067148;28;20060;-62
2020/12/24 09:10:26;;;;;;;41.63;24.48;;;;;;;;;;5071261;28;20035;-61
2020/12/24 09:12:57;;;;;;;45.22;24.67;;;;;;;;;;5071410;28;20098;-61
2020/12/24 09:15:28;;;;;;;46.47;24.87;;;;;;;;;;5071097;28;20439;-61
2020/12/24 09:17:55;;;;;;;46.88;25.45;;;;;;;;;;5071989;28;20392;-62
2020/12/24 09:20:26;;;;;;;42.58;25.02;;;;;;;;;;5052453;28;20385;-61
2020/12/24 09:22:56;;;;;;;45.55;27.45;;;;;;;;;;5070924;28;20351;-61
2020/12/24 09:25:31;;;;;;;48.85;28.23;;;;;;;;;;5069997;28;20028;-61
2020/12/24 09:27:58;;;;;;;49.42;31.13;;;;;;;;;;5068056;28;20074;-61
2020/12/24 09:30:25;;;;;;;49.08;30.67;;;;;;;;;;5072163;28;20078;-61
2020/12/24 09:32:59;;;;;;;50.58;30.42;;;;;;;;;;5072478;28;20373;-61
2020/12/24 09:35:26;;;;;;;48.58;29.70;;;;;;;;;;5072290;28;20052;-61
2020/12/24 09:37:53;;;;;;;47.25;26.40;;;;;;;;;;5072073;28;20485;-62
2020/12/24 09:40:20;;;;;;;50.83;28.75;;;;;;;;;;5071744;28;20021;-62
2020/12/24 09:42:47;;;;;;;43.60;26.58;;;;;;;;;;5071894;28;20028;-62
2020/12/24 09:45:13;;;;;;;42.28;25.92;;;;;;;;;;5072059;28;20028;-60
2020/12/24 09:47:39;;;;;;;43.53;25.60;;;;;;;;;;5072202;28;20028;-61
2020/12/24 09:50:06;;;;;;;43.65;26.00;;;;;;;;;;5071246;28;20050;-61
2020/12/24 09:52:32;;;;;;;38.63;24.27;;;;;;;;;;5069857;28;20025;-63
2020/12/24 09:54:58;;;;;;;40.08;25.05;;;;;;;;;;5069843;28;20111;-62
2020/12/24 09:57:24;;;;;;;39.20;24.55;;;;;;;;;;5052839;28;20032;-62
2020/12/24 09:59:51;;;;;;;39.53;25.02;;;;;;;;;;5070780;28;20024;-62
2020/12/24 10:02:19;;;;;;;44.97;27.08;;;;;;;;;;5070164;28;20537;-62
2020/12/24 10:04:45;;;;;;;52.97;30.58;;;;;;;;;;5070307;28;20050;-63
2020/12/24 10:07:11;;;;;;;50.72;32.70;;;;;;;;;;5071192;28;20028;-63
2020/12/24 10:09:37;;;;;;;47.05;29.02;;;;;;;;;;5071028;28;20044;-61
2020/12/24 10:12:04;;;;;;;47.42;30.58;;;;;;;;;;5070073;28;20048;-63
2020/12/24 10:14:30;;;;;;;47.22;30.45;;;;;;;;;;5070392;28;20547;-63
2020/12/24 10:16:56;;;;;;;48.30;29.70;;;;;;;;;;5057782;28;20028;-64
2020/12/24 10:19:22;;;;;;;45.17;27.52;;;;;;;;;;5071142;28;20024;-62
2020/12/24 10:21:48;;;;;;;44.75;26.10;;;;;;;;;;5071617;28;20029;-62
2020/12/24 10:24:15;;;;;;;40.15;24.73;;;;;;;;;;5071212;28;20032;-63
2020/12/24 10:26:41;;;;;;;40.65;25.05;;;;;;;;;;5071570;28;20033;-63
2020/12/24 10:29:07;;;;;;;40.97;25.27;;;;;;;;;;5071540;28;20040;-62
2020/12/24 10:31:33;;;;;;;37.42;22.42;;;;;;;;;;5071241;28;20027;-63
2020/12/24 10:34:00;;;;;;;35.33;19.50;;;;;;;;;;5053650;28;20107;-63
2020/12/24 10:36:26;;;;;;;35.65;21.52;;;;;;;;;;5071091;28;20582;-62
2020/12/24 10:38:52;;;;;;;31.60;20.10;;;;;;;;;;5071319;28;20085;-63
2020/12/24 10:41:19;;;;;;;35.33;22.13;;;;;;;;;;5070882;28;20082;-63
2020/12/24 10:43:45;;;;;;;35.97;22.55;;;;;;;;;;5071397;28;20040;-62
2020/12/24 10:46:21;;;;;;;33.53;20.38;;;;;;;;;;5071369;28;20020;-63
2020/12/24 10:48:48;;;;;;;35.08;21.35;;;;;;;;;;5071364;28;20437;-63
2020/12/24 10:51:15;;;;;;;47.72;27.33;;;;;;;;;;5070974;28;20055;-63
2020/12/24 10:53:41;;;;;;;44.25;27.08;;;;;;;;;;5071188;28;20389;-63
2020/12/24 10:56:13;;;;;;;45.33;26.40;;;;;;;;;;5070988;28;20050;-63
2020/12/24 10:58:41;;;;;;;51.10;27.38;;;;;;;;;;5070984;28;20044;-63
2020/12/24 11:01:11;;;;;;;44.92;27.27;;;;;;;;;;5053006;28;20025;-62
2020/12/24 11:03:37;;;;;;;51.33;28.92;;;;;;;;;;5074224;28;20040;-62
2020/12/24 11:06:04;;;;;;;37.22;23.08;;;;;;;;;;5074561;28;20108;-62
2020/12/24 11:08:31;;;;;;;42.80;26.35;;;;;;;;;;5075077;28;20040;-61
2020/12/24 11:10:57;;;;;;;32.80;21.25;;;;;;;;;;5074825;28;20033;-61
2020/12/24 11:13:23;;;;;;;38.70;22.08;;;;;;;;;;5073656;28;20025;-61
2020/12/24 11:15:49;;;;;;;37.33;22.20;;;;;;;;;;5074936;28;20553;-61
2020/12/24 11:18:15;;;;;;;37.55;22.73;;;;;;;;;;5075336;28;20389;-61
2020/12/24 11:20:42;;;;;;;34.58;21.00;;;;;;;;;;5074489;28;20162;-61
2020/12/24 11:23:08;;;;;;;36.17;22.33;;;;;;;;;;5073144;28;20067;-62
2020/12/24 11:25:34;;;;;;;36.10;21.58;;;;;;;;;;5074107;28;20323;-62
2020/12/24 11:28:01;;;;;;;41.58;24.92;;;;;;;;;;5074768;28;20117;-62
2020/12/24 11:30:27;;;;;;;35.58;21.65;;;;;;;;;;5073600;28;20025;-61
2020/12/24 11:32:53;;;;;;;36.20;21.67;;;;;;;;;;5074176;28;20542;-62
2020/12/24 11:35:20;;;;;;;35.60;22.65;;;;;;;;;;5074474;28;20085;-63
2020/12/24 11:37:46;;;;;;;39.28;23.85;;;;;;;;;;5074691;28;20450;-62
2020/12/24 11:40:12;;;;;;;46.90;26.65;;;;;;;;;;5073256;28;20025;-63
2020/12/24 11:42:38;;;;;;;41.40;25.23;;;;;;;;;;5073863;28;20028;-62
2020/12/24 11:45:04;;;;;;;37.58;22.92;;;;;;;;;;5074552;28;20548;-61
2020/12/24 11:47:30;;;;;;;36.22;22.38;;;;;;;;;;5074026;28;20103;-62
2020/12/24 11:49:56;;;;;;;35.38;21.65;;;;;;;;;;5058843;28;20131;-62
2020/12/24 11:52:23;;;;;;;40.08;23.95;;;;;;;;;;5073708;28;20021;-62
2020/12/24 11:54:49;;;;;;;37.63;23.42;;;;;;;;;;5056234;28;20072;-63
2020/12/24 11:57:15;;;;;;;37.10;23.63;;;;;;;;;;5074216;28;20059;-62
2020/12/24 11:59:41;;;;;;;36.05;23.30;;;;;;;;;;5073861;28;20020;-62
2020/12/24 12:02:07;;;;;;;45.28;26.92;;;;;;;;;;5073141;28;20074;-61
2020/12/24 12:04:35;;;;;;;42.53;27.33;;;;;;;;;;5056006;28;20484;-62
2020/12/24 12:07:02;;;;;;;47.22;29.40;;;;;;;;;;5055965;28;20039;-62
2020/12/24 12:09:28;;;;;;;47.80;31.10;;;;;;;;;;5073250;28;20397;-62
2020/12/24 12:11:54;;;;;;;42.53;27.13;;;;;;;;;;5073212;28;20896;-62
2020/12/24 12:14:20;;;;;;;45.35;28.02;;;;;;;;;;5072089;28;20497;-62
2020/12/24 12:16:49;;;;;;;52.78;29.25;;;;;;;;;;5073573;28;20029;-71
2020/12/24 12:19:16;;;;;;;49.75;29.52;;;;;;;;;;5073222;28;20029;-71
2020/12/24 12:21:42;;;;;;;49.13;29.73;;;;;;;;;;5072810;28;20032;-65
2020/12/24 12:24:08;;;;;;;48.17;27.60;;;;;;;;;;5073123;28;20058;-65
2020/12/24 12:26:34;;;;;;;55.38;29.80;;;;;;;;;;5073249;28;20035;-66
2020/12/24 12:29:00;;;;;;;48.20;28.25;;;;;;;;;;5071658;28;20131;-65
2020/12/24 12:31:26;;;;;;;85.57;50.15;;;;;;;;;;5073061;28;20017;-65
2020/12/24 12:33:53;;;;;;;111.47;74.75;;;;;;;;;;5073085;28;20028;-66
2020/12/24 12:36:19;;;;;;;88.28;62.03;;;;;;;;;;5072951;28;20021;-65
2020/12/24 12:38:47;;;;;;;71.85;46.45;;;;;;;;;;5073520;28;20059;-66
2020/12/24 12:41:14;;;;;;;52.95;33.72;;;;;;;;;;5055686;28;20032;-68
2020/12/24 12:43:40;;;;;;;61.72;34.78;;;;;;;;;;5073336;28;20032;-67
2020/12/24 12:46:06;;;;;;;65.25;35.25;;;;;;;;;;5073477;28;20056;-66
2020/12/24 12:48:33;;;;;;;60.88;35.17;;;;;;;;;;5073046;28;20568;-67
2020/12/24 12:51:00;;;;;;;69.22;41.40;;;;;;;;;;5073500;28;20496;-67
2020/12/24 12:53:27;;;;;;;78.47;42.67;;;;;;;;;;5072986;28;20035;-67
2020/12/24 12:55:53;;;;;;;76.85;42.85;;;;;;;;;;5073089;28;20037;-67
2020/12/24 12:58:19;;;;;;;77.03;42.08;;;;;;;;;;5073046;28;20029;-67
2020/12/24 13:00:46;;;;;;;78.93;42.63;;;;;;;;;;5073084;28;20028;-67
2020/12/24 13:03:12;;;;;;;114.25;61.85;;;;;;;;;;5072657;28;20028;-66
2020/12/24 13:05:39;;;;;;;80.22;41.08;;;;;;;;;;5073226;28;20036;-66
2020/12/24 13:08:05;;;;;;;68.47;35.95;;;;;;;;;;5072967;28;20068;-66
2020/12/24 13:10:31;;;;;;;70.65;37.45;;;;;;;;;;5072590;28;20047;-66
2020/12/24 13:12:58;;;;;;;65.53;36.67;;;;;;;;;;5072004;28;20477;-65
2020/12/24 13:15:24;;;;;;;70.10;37.67;;;;;;;;;;5071995;28;20177;-66
2020/12/24 13:17:50;;;;;;;69.75;36.03;;;;;;;;;;5072198;28;20492;-65
2020/12/24 13:20:17;;;;;;;65.03;35.63;;;;;;;;;;5072448;28;20104;-65
2020/12/24 13:22:45;;;;;;;70.55;37.65;;;;;;;;;;5071884;28;20034;-65
2020/12/24 13:25:11;;;;;;;64.43;36.17;;;;;;;;;;5071966;28;20040;-65
2020/12/24 13:27:37;;;;;;;66.07;35.38;;;;;;;;;;5072384;28;20028;-66
2020/12/24 13:30:03;;;;;;;64.80;38.25;;;;;;;;;;5072260;28;20029;-66
2020/12/24 13:32:29;;;;;;;64.88;37.03;;;;;;;;;;5071994;28;20031;-64
2020/12/24 13:34:56;;;;;;;66.93;37.92;;;;;;;;;;5071641;28;20063;-65
2020/12/24 13:37:22;;;;;;;59.60;34.25;;;;;;;;;;5069032;28;20051;-67
2020/12/24 13:39:48;;;;;;;62.28;34.33;;;;;;;;;;5071744;28;20016;-63
2020/12/24 13:42:14;;;;;;;59.80;33.58;;;;;;;;;;5071888;28;20029;-65
2020/12/24 13:44:40;;;;;;;62.72;33.80;;;;;;;;;;5070940;28;20059;-65
2020/12/24 13:47:06;;;;;;;64.82;36.47;;;;;;;;;;5072048;28;20032;-65
2020/12/24 13:49:32;;;;;;;62.55;34.75;;;;;;;;;;5071275;28;20056;-65
2020/12/24 13:51:59;;;;;;;62.88;35.35;;;;;;;;;;5071741;28;20016;-70
2020/12/24 13:54:25;;;;;;;57.85;33.40;;;;;;;;;;5070178;28;20437;-66
2020/12/24 13:56:52;;;;;;;55.92;29.92;;;;;;;;;;5070647;28;20039;-66
2020/12/24 13:59:18;;;;;;;61.22;34.05;;;;;;;;;;5067997;28;20461;-67
2020/12/24 14:01:51;;;;;;;61.22;31.77;;;;;;;;;;5070526;28;20045;-67
2020/12/24 14:04:18;;;;;;;54.00;28.73;;;;;;;;;;5067306;28;20017;-66
2020/12/24 14:06:45;;;;;;;54.22;28.10;;;;;;;;;;5070423;28;20021;-66
2020/12/24 14:09:11;;;;;;;63.88;30.35;;;;;;;;;;5070440;28;20037;-66
2020/12/24 14:11:37;;;;;;;63.30;32.35;;;;;;;;;;5053199;28;20032;-66
2020/12/24 14:14:04;;;;;;;61.75;31.55;;;;;;;;;;5071481;28;20108;-66
2020/12/24 14:16:30;;;;;;;57.28;30.70;;;;;;;;;;5071585;28;20043;-66
2020/12/24 14:18:56;;;;;;;64.00;32.28;;;;;;;;;;5071940;28;20361;-66